Time;durP1;ratioP1;P1;durP2;ratioP2;P2;SDS_P1;SDS_P2;PMS_P1;PMS_P2;Temp;Humidity;BMP_temperature;BMP_pressure;BME280_temperature;BME280_humidity;BME280_pressure;Samples;Min_cycle;Max_cycle;Signal;HPM_P1;HPM_P2
2022/05/08 00:01:01;;;;;;;4.15;2.10;;;11.50;93.00;;;;;;4902242;29;20032;-72
2022/05/08 00:03:26;;;;;;;1.95;1.75;;;11.50;92.70;;;;;;4897656;29;20044;-73
2022/05/08 00:05:52;;;;;;;3.40;1.55;;;11.50;92.90;;;;;;4902856;29;20122;-72
2022/05/08 00:08:18;;;;;;;2.40;1.67;;;11.50;93.10;;;;;;4901523;29;20032;-72
2022/05/08 00:10:43;;;;;;;3.78;1.92;;;11.50;92.90;;;;;;4904114;29;20651;-72
2022/05/08 00:13:09;;;;;;;3.30;1.70;;;11.50;92.80;;;;;;4909018;29;20032;-72
2022/05/08 00:15:35;;;;;;;1.80;1.67;;;11.40;93.10;;;;;;4901753;29;20192;-69
2022/05/08 00:18:01;;;;;;;1.80;1.70;;;11.40;92.60;;;;;;4899985;29;20316;-72
2022/05/08 00:20:26;;;;;;;4.43;2.30;;;11.30;92.90;;;;;;4899994;29;20646;-72
2022/05/08 00:22:52;;;;;;;2.45;1.90;;;11.20;92.90;;;;;;4902747;29;20460;-72
2022/05/08 00:25:19;;;;;;;3.08;1.95;;;11.10;92.70;;;;;;4903277;29;20044;-73
2022/05/08 00:27:45;;;;;;;2.22;1.92;;;11.10;92.80;;;;;;4902385;29;20032;-72
2022/05/08 00:30:11;;;;;;;4.38;2.20;;;11.00;93.00;;;;;;4902204;29;20043;-72
2022/05/08 00:32:36;;;;;;;3.22;2.38;;;11.10;92.80;;;;;;4899885;29;20496;-71
2022/05/08 00:35:02;;;;;;;4.25;2.28;;;11.00;93.00;;;;;;4901297;29;20043;-72
2022/05/08 00:37:28;;;;;;;3.95;2.40;;;11.00;92.80;;;;;;4904797;29;20043;-72
2022/05/08 00:39:54;;;;;;;3.38;2.15;;;11.00;92.70;;;;;;4902848;29;20504;-72
2022/05/08 00:42:19;;;;;;;3.65;2.60;;;10.90;93.00;;;;;;4887338;29;20146;-72
2022/05/08 00:44:45;;;;;;;3.08;2.58;;;10.90;93.00;;;;;;4900173;29;20044;-72
2022/05/08 00:47:11;;;;;;;4.00;2.58;;;10.90;92.90;;;;;;4902229;29;20062;-72
2022/05/08 00:49:36;;;;;;;4.20;2.90;;;10.90;92.90;;;;;;4898572;29;20084;-72
2022/05/08 00:52:04;;;;;;;4.28;3.15;;;10.70;93.30;;;;;;4902737;29;20071;-72
2022/05/08 00:54:29;;;;;;;5.43;3.05;;;10.50;93.50;;;;;;4902145;29;20043;-72
2022/05/08 00:56:57;;;;;;;5.13;3.53;;;10.40;93.80;;;;;;4904400;29;20059;-72
2022/05/08 00:59:24;;;;;;;3.72;3.25;;;10.50;93.80;;;;;;4905685;29;20047;-72
2022/05/08 01:01:49;;;;;;;6.78;3.10;;;10.40;94.10;;;;;;4904790;29;20432;-72
2022/05/08 01:04:15;;;;;;;4.75;3.65;;;10.30;94.30;;;;;;4905659;29;20099;-72
2022/05/08 01:06:43;;;;;;;5.53;3.67;;;10.20;94.50;;;;;;4905204;29;20044;-72
2022/05/08 01:09:08;;;;;;;6.05;3.22;;;10.10;94.50;;;;;;4905665;29;20115;-72
2022/05/08 01:11:34;;;;;;;4.50;3.63;;;10.00;95.00;;;;;;4907086;29;20126;-72
2022/05/08 01:14:00;;;;;;;5.75;3.75;;;9.90;95.20;;;;;;4906603;29;20418;-72
2022/05/08 01:16:25;;;;;;;6.63;3.83;;;9.70;95.50;;;;;;4904063;29;20044;-72
2022/05/08 01:18:51;;;;;;;4.13;3.22;;;9.70;95.70;;;;;;4905085;29;20036;-72
2022/05/08 01:21:37;;;;;;;4.30;3.38;;;9.60;95.80;;;;;;4906485;29;20045;-72
2022/05/08 01:24:03;;;;;;;5.80;3.38;;;9.50;96.00;;;;;;4906379;29;20116;-72
2022/05/08 01:26:28;;;;;;;4.63;3.53;;;9.40;96.10;;;;;;4901876;29;20139;-72
2022/05/08 01:28:54;;;;;;;4.55;3.08;;;9.30;96.10;;;;;;4903438;29;20073;-72
2022/05/08 01:31:19;;;;;;;4.25;3.05;;;9.20;96.30;;;;;;4907649;29;20043;-72
2022/05/08 01:33:45;;;;;;;3.78;2.65;;;9.00;96.50;;;;;;4913976;29;20036;-72
2022/05/08 01:36:11;;;;;;;5.30;3.03;;;8.90;96.90;;;;;;4903882;29;20036;-72
2022/05/08 01:38:36;;;;;;;3.42;3.08;;;8.80;97.20;;;;;;4905906;29;20048;-72
2022/05/08 01:41:04;;;;;;;3.88;2.85;;;8.70;97.30;;;;;;4904624;29;20043;-72
2022/05/08 01:43:36;;;;;;;3.72;3.28;;;8.60;97.30;;;;;;4904463;29;20020;-72
2022/05/08 01:46:06;;;;;;;7.75;3.55;;;8.60;97.50;;;;;;4903967;29;20263;-72
2022/05/08 01:48:32;;;;;;;5.00;3.42;;;8.50;97.80;;;;;;4900168;29;20028;-72
2022/05/08 01:51:00;;;;;;;6.45;3.60;;;8.60;97.90;;;;;;4902758;29;20119;-72
2022/05/08 01:53:28;;;;;;;8.40;4.10;;;8.50;98.00;;;;;;4910046;29;20518;-72
2022/05/08 01:55:56;;;;;;;8.10;3.65;;;8.60;98.20;;;;;;4906171;29;20036;-72
2022/05/08 01:58:24;;;;;;;6.45;3.65;;;8.60;98.10;;;;;;4903985;29;20024;-72
2022/05/08 02:00:50;;;;;;;6.47;3.42;;;8.50;98.00;;;;;;4901784;29;20048;-72
2022/05/08 02:03:17;;;;;;;6.25;3.67;;;8.50;97.90;;;;;;4902490;29;20101;-72
2022/05/08 02:05:43;;;;;;;7.90;4.13;;;8.60;98.10;;;;;;4902990;29;20066;-72
2022/05/08 02:08:10;;;;;;;9.50;4.35;;;8.60;98.10;;;;;;4902186;29;20024;-72
2022/05/08 02:10:36;;;;;;;7.72;4.18;;;8.70;98.10;;;;;;4900246;29;20190;-72
2022/05/08 02:13:02;;;;;;;6.20;3.88;;;8.70;98.10;;;;;;4902199;29;20285;-72
2022/05/08 02:15:31;;;;;;;11.07;4.72;;;8.70;98.10;;;;;;4902349;29;20368;-72
2022/05/08 02:18:01;;;;;;;8.93;4.68;;;8.80;98.00;;;;;;4899343;29;20547;-72
2022/05/08 02:20:28;;;;;;;13.18;5.10;;;8.90;97.90;;;;;;4903702;29;20046;-72
2022/05/08 02:22:53;;;;;;;6.32;4.13;;;9.00;97.70;;;;;;4902598;29;20028;-72
2022/05/08 02:25:19;;;;;;;9.18;4.93;;;9.00;97.60;;;;;;4900061;29;20542;-72
2022/05/08 02:27:49;;;;;;;10.07;4.65;;;9.00;97.40;;;;;;4903654;29;20032;-72
2022/05/08 02:30:17;;;;;;;10.70;5.35;;;9.10;97.40;;;;;;4907494;29;20044;-72
2022/05/08 02:32:43;;;;;;;12.75;5.20;;;9.10;97.30;;;;;;4910330;29;20167;-72
2022/05/08 02:35:10;;;;;;;13.68;4.80;;;9.00;97.20;;;;;;4900665;29;20115;-71
2022/05/08 02:37:37;;;;;;;8.50;5.93;;;8.90;97.20;;;;;;4902633;29;20032;-72
2022/05/08 02:40:05;;;;;;;13.00;5.68;;;8.80;97.30;;;;;;4909651;29;20049;-72
2022/05/08 02:42:31;;;;;;;11.27;5.45;;;8.70;97.40;;;;;;4909321;29;20039;-72
2022/05/08 02:44:56;;;;;;;11.68;5.40;;;8.50;97.40;;;;;;4902369;29;20040;-72
2022/05/08 02:47:22;;;;;;;9.82;5.00;;;8.50;97.50;;;;;;4905031;29;20662;-72
2022/05/08 02:49:47;;;;;;;12.25;5.68;;;8.40;97.60;;;;;;4904796;29;20036;-72
2022/05/08 02:52:13;;;;;;;14.13;6.13;;;8.40;97.80;;;;;;4904463;29;20468;-72
2022/05/08 02:54:39;;;;;;;9.95;5.45;;;8.30;98.00;;;;;;4902575;29;20392;-72
2022/05/08 02:59:50;;;;;;;12.95;5.80;;;8.20;98.10;;;;;;4903149;29;20713;-72
2022/05/08 03:02:16;;;;;;;12.80;6.40;;;8.10;98.20;;;;;;4899780;29;20027;-72
2022/05/08 03:04:42;;;;;;;10.82;6.00;;;8.10;98.60;;;;;;4903642;29;20067;-72
2022/05/08 03:07:08;;;;;;;13.50;7.22;;;8.10;98.40;;;;;;4902893;29;20036;-72
2022/05/08 03:09:33;;;;;;;14.25;6.72;;;8.10;98.50;;;;;;4899803;29;20556;-72
2022/05/08 03:11:59;;;;;;;15.15;6.60;;;8.10;98.50;;;;;;4904929;29;20035;-72
2022/05/08 03:14:25;;;;;;;12.98;5.50;;;8.10;98.50;;;;;;4901860;29;20179;-72
2022/05/08 03:16:51;;;;;;;15.50;6.40;;;8.10;98.50;;;;;;4901532;29;20415;-72
2022/05/08 03:19:21;;;;;;;14.88;6.68;;;8.10;98.40;;;;;;4901225;29;20078;-72
2022/05/08 03:21:51;;;;;;;16.83;7.32;;;8.00;98.40;;;;;;4901171;29;20043;-72
2022/05/08 03:24:17;;;;;;;14.23;6.80;;;8.00;98.60;;;;;;4913254;29;20536;-72
2022/05/08 03:26:43;;;;;;;16.73;7.78;;;7.90;98.60;;;;;;4919634;29;20043;-72
2022/05/08 03:29:08;;;;;;;16.35;7.13;;;7.90;98.80;;;;;;4904388;29;20039;-72
2022/05/08 03:31:35;;;;;;;13.98;6.65;;;7.80;98.80;;;;;;4916633;29;20047;-72
2022/05/08 03:34:00;;;;;;;14.30;6.45;;;7.80;98.90;;;;;;4903549;29;20113;-72
2022/05/08 03:36:26;;;;;;;16.33;6.80;;;7.80;99.10;;;;;;4904166;29;20056;-72
2022/05/08 03:38:52;;;;;;;16.45;6.80;;;7.70;99.00;;;;;;4911364;29;20530;-72
2022/05/08 03:41:18;;;;;;;13.82;8.00;;;7.70;99.00;;;;;;4901363;29;20043;-72
2022/05/08 03:43:47;;;;;;;13.27;7.25;;;7.60;99.10;;;;;;4904935;29;20589;-72
2022/05/08 03:46:15;;;;;;;14.32;7.47;;;7.60;99.20;;;;;;4903175;29;20079;-72
2022/05/08 03:48:41;;;;;;;13.68;8.38;;;7.50;99.20;;;;;;4901809;29;20041;-72
2022/05/08 03:51:08;;;;;;;13.50;7.90;;;7.40;99.30;;;;;;4901098;29;20028;-72
2022/05/08 03:53:33;;;;;;;15.73;7.80;;;7.40;99.40;;;;;;4900713;29;20028;-72
2022/05/08 03:55:59;;;;;;;13.38;7.72;;;7.30;99.50;;;;;;4903248;29;20609;-72
2022/05/08 03:58:26;;;;;;;15.70;8.75;;;7.20;99.60;;;;;;4904203;29;20032;-72
2022/05/08 04:00:52;;;;;;;20.15;9.00;;;7.20;99.70;;;;;;4903068;29;20031;-72
2022/05/08 04:03:17;;;;;;;17.92;8.52;;;7.20;99.80;;;;;;4902841;29;20399;-72
2022/05/08 04:05:43;;;;;;;14.95;7.25;;;7.20;99.90;;;;;;4908644;29;20054;-72
2022/05/08 04:08:08;;;;;;;17.02;8.68;;;7.20;99.90;;;;;;4914567;29;20059;-72
2022/05/08 04:10:34;;;;;;;16.98;8.48;;;7.20;99.90;;;;;;4903137;29;20044;-72
2022/05/08 04:13:00;;;;;;;16.13;8.90;;;7.30;99.90;;;;;;4903085;29;20577;-72
2022/05/08 04:18:10;;;;;;;16.08;8.32;;;7.30;99.90;;;;;;4897852;29;20051;-72
2022/05/08 04:20:36;;;;;;;15.18;8.45;;;7.30;99.90;;;;;;4900675;29;20415;-72
2022/05/08 04:25:52;;;;;;;12.75;8.27;;;7.20;99.90;;;;;;4903510;29;20055;-72
2022/05/08 04:28:19;;;;;;;22.23;9.48;;;7.20;99.90;;;;;;4894113;29;20047;-72
2022/05/08 04:30:45;;;;;;;19.08;8.13;;;7.10;99.90;;;;;;4899288;29;20558;-72
2022/05/08 04:33:11;;;;;;;17.20;8.55;;;7.10;99.90;;;;;;4900656;29;20107;-72
2022/05/08 04:35:36;;;;;;;20.85;8.60;;;7.00;99.90;;;;;;4912613;29;20542;-72
2022/05/08 04:38:02;;;;;;;20.83;9.43;;;7.00;99.90;;;;;;4907666;29;20040;-72
2022/05/08 04:40:28;;;;;;;16.90;8.02;;;7.00;99.90;;;;;;4909843;29;20038;-72
2022/05/08 04:42:54;;;;;;;16.02;8.45;;;7.10;99.90;;;;;;4902898;29;20042;-71
2022/05/08 04:45:20;;;;;;;21.75;9.27;;;7.10;99.90;;;;;;4906656;29;20040;-72
2022/05/08 04:47:45;;;;;;;15.00;8.35;;;7.10;99.90;;;;;;4906883;29;20173;-72
2022/05/08 04:50:11;;;;;;;20.17;9.73;;;7.10;99.90;;;;;;4903992;29;20036;-72
2022/05/08 04:52:36;;;;;;;15.88;8.52;;;7.10;99.90;;;;;;4903853;29;20403;-72
2022/05/08 04:55:03;;;;;;;17.90;8.82;;;7.10;99.90;;;;;;4903617;29;20084;-72
2022/05/08 04:57:30;;;;;;;21.45;8.88;;;7.10;99.90;;;;;;4913070;29;20103;-72
2022/05/08 04:59:56;;;;;;;15.40;8.75;;;7.20;99.90;;;;;;4907037;29;20032;-72
2022/05/08 05:02:21;;;;;;;16.45;8.85;;;7.10;99.90;;;;;;4904288;29;20028;-72
2022/05/08 05:04:47;;;;;;;22.35;9.48;;;7.20;99.90;;;;;;4900171;29;20622;-72
2022/05/08 05:07:12;;;;;;;19.52;8.85;;;7.20;99.90;;;;;;4906288;29;20043;-72
2022/05/08 05:09:38;;;;;;;23.55;9.43;;;7.30;99.90;;;;;;4909110;29;20043;-72
2022/05/08 05:12:04;;;;;;;18.23;9.85;;;7.40;99.90;;;;;;4902785;29;20452;-72
2022/05/08 05:14:33;;;;;;;21.88;9.60;;;7.50;99.90;;;;;;4904301;29;20047;-72
2022/05/08 05:17:00;;;;;;;21.02;9.30;;;7.70;99.90;;;;;;4902424;29;20111;-72
2022/05/08 05:19:26;;;;;;;16.75;9.20;;;7.80;99.90;;;;;;4898345;29;20456;-72
2022/05/08 05:21:52;;;;;;;18.05;9.45;;;7.80;99.90;;;;;;4896194;29;20445;-72
2022/05/08 05:24:17;;;;;;;19.27;8.95;;;7.80;99.90;;;;;;4902398;29;20070;-72
2022/05/08 05:26:43;;;;;;;21.15;9.52;;;7.80;99.90;;;;;;4903195;29;20052;-72
2022/05/08 05:29:09;;;;;;;17.58;9.57;;;7.90;99.90;;;;;;4902988;29;20338;-72
2022/05/08 05:31:34;;;;;;;24.38;10.23;;;7.90;99.90;;;;;;4901770;29;20511;-72
2022/05/08 05:34:00;;;;;;;19.80;9.55;;;8.00;99.90;;;;;;4905445;29;20055;-72
2022/05/08 05:36:26;;;;;;;22.60;9.40;;;8.20;99.90;;;;;;4904873;29;20387;-72
2022/05/08 05:38:51;;;;;;;15.50;9.32;;;8.30;99.90;;;;;;4910010;29;20055;-72
2022/05/08 05:41:17;;;;;;;18.00;8.55;;;8.50;99.90;;;;;;4908012;29;20110;-72
2022/05/08 05:43:42;;;;;;;14.25;8.80;;;8.50;99.90;;;;;;4903923;29;20115;-72
2022/05/08 05:48:52;;;;;;;23.52;7.82;;;8.70;99.60;;;;;;4907770;29;20875;-72
2022/05/08 05:51:18;;;;;;;16.25;8.00;;;8.90;99.90;;;;;;4915363;29;20044;-73
2022/05/08 05:53:43;;;;;;;11.75;7.00;;;8.90;99.40;;;;;;4900718;29;20172;-72
2022/05/08 05:56:09;;;;;;;17.52;6.82;;;9.10;99.50;;;;;;4902499;29;20040;-73
2022/05/08 05:58:35;;;;;;;19.00;7.63;;;9.40;98.80;;;;;;4903489;29;20028;-72
2022/05/08 06:01:01;;;;;;;18.40;7.40;;;9.50;98.10;;;;;;4903030;29;20047;-72
2022/05/08 06:03:27;;;;;;;17.05;6.88;;;9.60;98.00;;;;;;4901761;29;20108;-72
2022/05/08 06:05:53;;;;;;;18.10;7.00;;;9.80;97.30;;;;;;4900868;29;20512;-73
2022/05/08 06:08:18;;;;;;;18.08;6.68;;;10.00;97.20;;;;;;4904368;29;20036;-72
2022/05/08 06:10:44;;;;;;;13.77;6.05;;;10.00;96.80;;;;;;4900351;29;20444;-72
2022/05/08 06:13:10;;;;;;;18.52;6.05;;;10.10;96.30;;;;;;4899866;29;20470;-72
2022/05/08 06:15:35;;;;;;;15.43;5.90;;;10.30;95.30;;;;;;4899235;29;20084;-73
2022/05/08 06:18:01;;;;;;;18.48;6.40;;;10.40;95.10;;;;;;4901693;29;20035;-73
2022/05/08 06:20:27;;;;;;;21.02;6.43;;;10.60;94.70;;;;;;4900672;29;20487;-72
2022/05/08 06:22:54;;;;;;;19.80;5.85;;;10.60;93.90;;;;;;4901759;29;20467;-73
2022/05/08 06:25:20;;;;;;;15.00;5.60;;;10.60;93.90;;;;;;4906296;29;20039;-73
2022/05/08 06:27:45;;;;;;;16.52;5.40;;;10.70;94.40;;;;;;4904317;29;20036;-72
2022/05/08 06:30:11;;;;;;;11.75;5.45;;;10.70;93.70;;;;;;4906069;29;20499;-73
2022/05/08 06:32:37;;;;;;;16.17;6.50;;;10.70;93.50;;;;;;4899161;29;20063;-73
2022/05/08 06:35:03;;;;;;;13.13;4.80;;;10.80;93.30;;;;;;4898177;29;20032;-72
2022/05/08 06:37:29;;;;;;;17.45;6.10;;;10.80;93.20;;;;;;4900427;29;20055;-72
2022/05/08 06:39:54;;;;;;;34.80;15.73;;;10.80;93.10;;;;;;4900509;29;20122;-73
2022/05/08 06:42:20;;;;;;;14.90;4.70;;;10.90;92.70;;;;;;4901028;29;20043;-73
2022/05/08 06:44:46;;;;;;;18.40;5.28;;;10.90;92.30;;;;;;4901718;29;20523;-73
2022/05/08 06:47:11;;;;;;;14.07;4.57;;;11.00;92.10;;;;;;4900636;29;20040;-72
2022/05/08 06:49:37;;;;;;;20.58;5.90;;;11.00;91.90;;;;;;4903660;29;20032;-72
2022/05/08 06:52:03;;;;;;;18.38;4.45;;;11.10;92.30;;;;;;4903026;29;20024;-72
2022/05/08 06:54:28;;;;;;;11.95;5.07;;;11.10;93.00;;;;;;4902223;29;20032;-72
2022/05/08 06:56:56;;;;;;;13.43;6.82;;;11.20;92.40;;;;;;4898892;29;20122;-72
2022/05/08 07:02:07;;;;;;;14.00;4.13;;;11.40;92.00;;;;;;4896023;29;20047;-72
2022/05/08 07:04:33;;;;;;;14.00;4.78;;;11.40;91.00;;;;;;4897885;29;20032;-72
2022/05/08 07:07:00;;;;;;;17.10;4.72;;;11.50;91.40;;;;;;4897416;29;20075;-72
2022/05/08 07:09:25;;;;;;;13.40;4.00;;;11.60;90.60;;;;;;4897819;29;20039;-72
2022/05/08 07:11:51;;;;;;;16.02;4.65;;;11.70;90.50;;;;;;4895938;29;20032;-72
2022/05/08 07:14:17;;;;;;;17.60;4.75;;;11.90;89.70;;;;;;4906667;29;20338;-73
2022/05/08 07:16:43;;;;;;;17.15;3.78;;;11.90;89.70;;;;;;4895277;29;20118;-72
2022/05/08 07:19:09;;;;;;;13.07;3.83;;;11.90;88.70;;;;;;4896597;29;20036;-72
2022/05/08 07:21:35;;;;;;;13.13;3.35;;;12.00;88.10;;;;;;4894377;29;20233;-72
2022/05/08 07:24:01;;;;;;;13.70;4.00;;;12.00;88.80;;;;;;4885760;29;20219;-73
2022/05/08 07:26:26;;;;;;;19.35;3.88;;;12.10;87.80;;;;;;4883944;29;20044;-72
2022/05/08 07:28:52;;;;;;;18.33;3.58;;;12.20;88.00;;;;;;4891791;29;20107;-70
2022/05/08 07:31:18;;;;;;;39.22;11.85;;;12.30;87.80;;;;;;4903063;29;20043;-73
2022/05/08 07:33:43;;;;;;;14.68;3.22;;;12.50;85.30;;;;;;4899120;29;20136;-73
2022/05/08 07:36:15;;;;;;;20.77;4.38;;;12.50;86.10;;;;;;4905994;29;20264;-72
2022/05/08 07:38:41;;;;;;;;;;;12.60;85.30;;;;;;4903460;29;20035;-72
2022/05/08 07:41:07;;;;;;;13.93;3.28;;;12.70;84.90;;;;;;4884544;29;19919;-70
2022/05/08 07:43:32;;;;;;;15.13;3.38;;;13.00;82.90;;;;;;4884033;29;20070;-72
2022/05/08 07:45:59;;;;;;;15.68;3.05;;;13.40;82.10;;;;;;4886340;29;20508;-72
2022/05/08 07:48:24;;;;;;;14.23;2.90;;;14.70;80.40;;;;;;4896421;28;21075;-72
2022/05/08 07:50:50;;;;;;;15.25;3.15;;;18.70;66.60;;;;;;4896307;29;20040;-72
2022/05/08 07:53:16;;;;;;;12.00;2.42;;;22.00;54.40;;;;;;4878521;29;20589;-72
2022/05/08 07:55:42;;;;;;;9.13;2.25;;;24.70;47.80;;;;;;4883401;29;20115;-71
2022/05/08 07:58:09;;;;;;;14.50;2.75;;;26.60;41.60;;;;;;4876628;29;20817;-72
2022/05/08 08:00:36;;;;;;;9.82;2.53;;;27.30;38.70;;;;;;4891353;29;20688;-72
2022/05/08 08:03:03;;;;;;;10.07;2.42;;;28.30;38.20;;;;;;4888386;29;20482;-72
2022/05/08 08:05:29;;;;;;;10.02;2.22;;;28.20;37.40;;;;;;4879908;29;20074;-72
2022/05/08 08:07:55;;;;;;;14.35;2.90;;;29.60;35.00;;;;;;4885846;29;20062;-72
2022/05/08 08:10:21;;;;;;;9.45;2.42;;;30.00;34.80;;;;;;4887292;29;20551;-73
2022/05/08 08:12:46;;;;;;;10.07;2.63;;;30.60;34.50;;;;;;4890844;29;20032;-72
2022/05/08 08:15:12;;;;;;;10.65;3.17;;;30.10;33.60;;;;;;4895821;29;20042;-72
2022/05/08 08:17:39;;;;;;;10.85;2.17;;;30.50;31.90;;;;;;4894310;29;20059;-72
2022/05/08 08:20:06;;;;;;;11.98;2.40;;;30.50;31.50;;;;;;4895575;29;20127;-72
2022/05/08 08:22:32;;;;;;;12.25;2.53;;;29.70;34.00;;;;;;4894363;29;20040;-72
2022/05/08 08:25:00;;;;;;;11.70;2.80;;;31.20;34.00;;;;;;4898071;29;20036;-72
2022/05/08 08:27:26;;;;;;;14.10;3.90;;;31.60;33.30;;;;;;4882698;29;20036;-72
2022/05/08 08:29:53;;;;;;;10.98;2.72;;;30.90;31.80;;;;;;4882276;29;20263;-72
2022/05/08 08:32:22;;;;;;;12.75;2.35;;;31.10;30.40;;;;;;4627995;28;10000753;-72
2022/05/08 08:34:48;;;;;;;11.43;2.30;;;30.80;30.50;;;;;;4892991;29;20390;-72
2022/05/08 08:37:14;;;;;;;10.50;2.35;;;30.00;35.20;;;;;;4882068;29;20062;-73
2022/05/08 08:39:40;;;;;;;11.90;2.47;;;30.80;32.20;;;;;;4884714;29;20119;-72
2022/05/08 08:42:13;;;;;;;12.27;3.60;;;31.20;29.90;;;;;;4885817;29;20220;-73
2022/05/08 08:47:43;;;;;;;10.30;2.60;;;30.60;30.30;;;;;;4896428;29;20062;-72
2022/05/08 08:50:09;;;;;;;10.88;2.58;;;30.60;31.40;;;;;;4903392;29;20032;-71
2022/05/08 08:52:36;;;;;;;8.98;2.67;;;30.20;32.20;;;;;;4890561;29;20031;-73
2022/05/08 08:55:02;;;;;;;11.60;2.60;;;30.90;30.10;;;;;;4900503;29;20028;-72
2022/05/08 08:57:28;;;;;;;11.45;2.53;;;29.50;30.40;;;;;;4904947;29;20039;-72
2022/05/08 08:59:53;;;;;;;10.80;2.85;;;29.50;32.60;;;;;;4903368;29;20472;-71
2022/05/08 09:02:20;;;;;;;9.25;2.38;;;29.50;31.40;;;;;;4897842;29;20056;-72
2022/05/08 09:04:48;;;;;;;10.52;2.53;;;29.40;30.60;;;;;;4887460;29;20056;-72
2022/05/08 09:07:48;;;;;;;7.75;1.98;;;29.70;31.80;;;;;;4890963;29;20551;-71
2022/05/08 09:10:19;;;;;;;12.40;2.75;;;29.80;30.10;;;;;;4888872;29;20040;-72
2022/05/08 09:13:04;;;;;;;11.40;2.22;;;28.90;32.80;;;;;;4890287;29;20036;-72
2022/05/08 09:15:31;;;;;;;7.82;2.47;;;29.30;30.70;;;;;;4885717;29;20187;-72
2022/05/08 09:17:59;;;;;;;8.82;2.25;;;29.00;32.20;;;;;;4888629;29;20032;-72
2022/05/08 09:20:41;;;;;;;7.47;2.17;;;28.70;32.50;;;;;;4886820;29;20040;-72
2022/05/08 09:23:09;;;;;;;10.15;2.50;;;29.00;31.20;;;;;;4887049;29;20079;-72
2022/05/08 09:25:56;;;;;;;10.23;2.33;;;28.60;32.70;;;;;;4892876;29;20067;-72
2022/05/08 09:28:42;;;;;;;10.20;2.22;;;28.80;34.00;;;;;;4872938;29;20114;-71
2022/05/08 09:31:16;;;;;;;10.93;2.70;;;28.90;34.00;;;;;;4901197;29;20055;-72
2022/05/08 09:33:51;;;;;;;10.20;2.47;;;29.40;32.90;;;;;;4890614;29;20436;-72
2022/05/08 09:36:17;;;;;;;6.40;2.00;;;28.70;34.10;;;;;;4892601;29;20062;-71
2022/05/08 09:38:46;;;;;;;11.02;2.42;;;29.00;32.50;;;;;;4889131;29;20055;-71
2022/05/08 09:41:14;;;;;;;9.15;2.50;;;28.50;35.20;;;;;;4884723;29;20485;-72
2022/05/08 09:43:40;;;;;;;8.20;2.28;;;28.20;34.00;;;;;;4890451;29;20032;-72
2022/05/08 09:46:07;;;;;;;7.70;1.77;;;28.80;37.40;;;;;;4888950;29;20170;-72
2022/05/08 09:48:33;;;;;;;11.00;2.17;;;28.80;30.60;;;;;;4888891;29;20832;-72
2022/05/08 09:51:06;;;;;;;6.78;1.77;;;28.50;31.50;;;;;;4885986;29;20904;-73
2022/05/08 09:53:33;;;;;;;12.43;2.17;;;28.60;36.00;;;;;;4876700;29;20069;-73
2022/05/08 09:56:00;;;;;;;9.52;1.88;;;28.20;31.40;;;;;;4886339;29;20339;-73
2022/05/08 09:58:26;;;;;;;11.88;2.72;;;28.80;35.30;;;;;;4886803;29;20091;-73
2022/05/08 10:00:52;;;;;;;12.20;2.42;;;29.40;33.60;;;;;;4890517;29;20044;-72
2022/05/08 10:03:19;;;;;;;11.13;2.40;;;30.00;30.00;;;;;;4893270;29;20760;-71
2022/05/08 10:05:45;;;;;;;7.65;2.38;;;28.60;32.10;;;;;;4895454;29;20044;-73
2022/05/08 10:08:18;;;;;;;10.52;2.50;;;28.50;33.80;;;;;;4899795;29;20036;-72
2022/05/08 10:16:52;;;;;;;9.02;2.42;;;28.60;33.10;;;;;;4902959;29;20757;-72
2022/05/08 10:19:18;;;;;;;14.07;2.80;;;28.00;35.70;;;;;;4899174;29;20055;-71
2022/05/08 10:22:09;;;;;;;10.00;2.35;;;28.60;35.80;;;;;;4900333;29;20453;-71
2022/05/08 10:24:56;;;;;;;6.70;1.50;;;28.70;31.40;;;;;;4900035;29;20032;-72
2022/05/08 10:27:21;;;;;;;6.47;1.85;;;28.50;31.90;;;;;;4900097;29;20055;-72
2022/05/08 10:29:50;;;;;;;5.20;1.63;;;28.10;34.70;;;;;;4879202;29;20032;-71
2022/05/08 10:32:28;;;;;;;6.55;1.98;;;28.30;34.30;;;;;;4896210;29;20064;-72
2022/05/08 10:35:10;;;;;;;8.02;2.08;;;28.20;34.90;;;;;;4894377;29;20024;-72
2022/05/08 10:37:42;;;;;;;7.75;1.85;;;28.40;33.10;;;;;;4902147;29;20581;-72
2022/05/08 10:40:28;;;;;;;8.68;1.80;;;28.40;34.30;;;;;;4899906;29;20032;-71
2022/05/08 10:42:55;;;;;;;8.70;1.85;;;28.20;33.90;;;;;;4889465;29;20059;-72
2022/05/08 10:45:33;;;;;;;10.55;1.60;;;27.90;30.20;;;;;;4901386;29;20030;-72
2022/05/08 10:48:08;;;;;;;8.63;2.53;;;27.50;32.60;;;;;;4899748;29;20044;-71
2022/05/08 10:50:38;;;;;;;8.93;2.05;;;27.30;35.50;;;;;;4899846;29;20515;-71
2022/05/08 10:53:04;;;;;;;8.00;2.17;;;27.50;36.00;;;;;;4899422;29;20063;-69
2022/05/08 10:55:30;;;;;;;6.18;1.40;;;27.20;32.30;;;;;;4898463;29;20083;-74
2022/05/08 10:57:56;;;;;;;9.05;1.77;;;27.80;32.50;;;;;;4899636;29;20039;-74
2022/05/08 11:00:25;;;;;;;8.45;1.80;;;28.00;34.60;;;;;;4906570;29;20103;-72
2022/05/08 11:02:54;;;;;;;9.00;2.00;;;28.00;31.00;;;;;;4897823;29;20039;-74
2022/05/08 11:05:21;;;;;;;9.48;1.90;;;27.30;32.80;;;;;;4896710;29;20507;-72
2022/05/08 11:07:49;;;;;;;6.13;1.80;;;27.90;34.20;;;;;;4900136;29;20051;-73
2022/05/08 11:10:16;;;;;;;6.32;1.70;;;27.30;30.70;;;;;;4898233;29;20546;-72
2022/05/08 11:13:02;;;;;;;5.75;1.67;;;27.30;32.50;;;;;;4900164;29;20032;-73
2022/05/08 11:15:29;;;;;;;8.63;1.60;;;27.30;33.80;;;;;;4898841;29;20032;-73
2022/05/08 11:18:22;;;;;;;9.45;1.75;;;27.50;35.50;;;;;;4904080;29;20054;-75
2022/05/08 11:20:57;;;;;;;8.60;1.70;;;27.00;33.70;;;;;;4916779;29;20043;-74
2022/05/08 11:23:27;;;;;;;5.63;1.67;;;26.70;34.40;;;;;;4900166;29;20495;-73
2022/05/08 11:25:55;;;;;;;7.77;2.30;;;26.40;36.70;;;;;;4899687;29;20039;-73
2022/05/08 11:28:23;;;;;;;6.03;1.60;;;26.60;35.00;;;;;;4902695;29;20391;-74
2022/05/08 11:30:50;;;;;;;9.20;1.92;;;25.90;36.80;;;;;;4903935;29;20044;-73
2022/05/08 11:36:05;;;;;;;6.97;1.90;;;24.50;38.10;;;;;;4904650;29;20047;-73
2022/05/08 11:38:50;;;;;;;6.53;1.60;;;24.20;44.10;;;;;;4897149;29;20024;-73
2022/05/08 11:41:18;;;;;;;7.28;2.00;;;24.00;38.20;;;;;;4904147;29;20040;-72
2022/05/08 11:43:46;;;;;;;13.98;2.30;;;23.70;37.90;;;;;;4904570;29;20757;-72
2022/05/08 11:46:15;;;;;;;8.35;1.88;;;23.20;41.90;;;;;;4902861;29;20044;-73
2022/05/08 11:48:47;;;;;;;6.95;2.05;;;23.60;50.00;;;;;;4902907;29;20518;-73
2022/05/08 11:51:21;;;;;;;9.02;1.90;;;23.70;40.60;;;;;;4902772;29;20044;-74
2022/05/08 11:53:49;;;;;;;7.50;1.50;;;23.80;43.80;;;;;;4903485;29;20025;-74
2022/05/08 11:56:21;;;;;;;9.15;1.90;;;23.80;45.10;;;;;;4903700;29;20032;-74
2022/05/08 11:58:49;;;;;;;9.10;1.65;;;23.90;42.50;;;;;;4903221;29;20278;-74
2022/05/08 12:01:30;;;;;;;6.15;1.58;;;23.70;42.60;;;;;;4899673;29;20048;-76
2022/05/08 12:04:18;;;;;;;6.47;1.75;;;23.90;42.70;;;;;;4901513;29;20038;-78
2022/05/08 12:07:10;;;;;;;5.85;1.10;;;23.80;43.90;;;;;;4896418;29;20407;-79
2022/05/08 12:10:00;;;;;;;6.90;1.73;;;23.90;41.50;;;;;;4905958;29;20114;-78
2022/05/08 12:12:36;;;;;;;7.06;1.64;;;23.80;40.90;;;;;;4838829;28;10000832;-76
2022/05/08 12:15:20;;;;;;;4.18;1.58;;;23.60;41.80;;;;;;4901713;29;20323;-79
2022/05/08 12:17:49;;;;;;;7.63;1.35;;;23.40;40.60;;;;;;4904575;29;20044;-79
2022/05/08 12:20:25;;;;;;;8.75;1.88;;;23.40;42.60;;;;;;4899152;29;20119;-77
2022/05/08 12:23:03;;;;;;;7.10;1.63;;;23.60;43.00;;;;;;4903120;29;20043;-75
2022/05/08 12:25:29;;;;;;;7.22;1.98;;;23.90;40.20;;;;;;4893526;29;20043;-79
2022/05/08 12:27:55;;;;;;;8.80;1.60;;;23.50;41.20;;;;;;4900924;29;20862;-76
2022/05/08 12:30:20;;;;;;;6.97;1.48;;;23.50;42.90;;;;;;4897450;29;20032;-74
2022/05/08 12:32:46;;;;;;;4.88;1.15;;;23.50;44.10;;;;;;4903494;29;20032;-79
2022/05/08 12:35:12;;;;;;;5.68;1.33;;;23.40;46.70;;;;;;4896445;29;20036;-75
2022/05/08 12:37:39;;;;;;;7.00;1.45;;;23.30;40.90;;;;;;4902550;29;20124;-78
2022/05/08 12:40:06;;;;;;;8.98;1.92;;;23.50;45.30;;;;;;4918339;29;20035;-78
2022/05/08 12:42:32;;;;;;;4.68;1.48;;;23.50;43.50;;;;;;4916658;29;20028;-76
2022/05/08 12:44:58;;;;;;;6.97;1.48;;;23.40;39.00;;;;;;4900723;29;20423;-78
2022/05/08 12:47:23;;;;;;;4.25;1.73;;;23.30;44.20;;;;;;4903229;29;20044;-77
2022/05/08 12:49:49;;;;;;;5.03;1.33;;;22.80;40.70;;;;;;4892729;29;20751;-75
2022/05/08 12:52:15;;;;;;;5.32;1.40;;;22.90;38.30;;;;;;4914509;29;20039;-76
2022/05/08 12:54:41;;;;;;;8.35;1.52;;;22.70;41.60;;;;;;4906005;29;20028;-74
2022/05/08 12:57:08;;;;;;;3.85;1.50;;;22.80;39.20;;;;;;4907153;29;20047;-76
2022/05/08 12:59:47;;;;;;;5.20;1.30;;;22.80;43.20;;;;;;4913296;29;20028;-75
2022/05/08 13:02:14;;;;;;;5.15;1.20;;;23.30;42.80;;;;;;4906883;29;20123;-77
2022/05/08 13:04:41;;;;;;;6.78;1.70;;;23.30;39.00;;;;;;4904316;29;20476;-74
2022/05/08 13:07:07;;;;;;;5.47;1.25;;;23.30;42.00;;;;;;4907932;29;20126;-78
2022/05/08 13:09:33;;;;;;;7.45;1.80;;;23.10;46.50;;;;;;4901681;29;20039;-75
2022/05/08 13:12:00;;;;;;;6.05;1.67;;;23.10;39.90;;;;;;4908904;29;20036;-78
2022/05/08 13:14:26;;;;;;;6.55;1.40;;;22.80;44.00;;;;;;4908845;29;20032;-75